Airfield :
LOGIN :

Register | Disclaimer

   EN    FR    IT 

 










Legend :    VFR   Marginal VFR   IFR   Intensive IFR   Very Intensive IFR
Visi :
Ceiling :
>= 8 km
>= 3000ft
5 to 8 km
1000 to 3000 ft
1500m to 5 km
500 to 1000 ft
800 to 1500m
200 to 500 ft
< 800m
< 200 ft
Symbols :   Thunderstorms  Fog  Heavy snow  Heavy precipitations  Wind > 20 kt
SIGMETs :     Misc.  Thunderstorms  Icing  Turbulence  Mountain Waves  Volcanic Ashes







- Airport Elevation : 204 ft
- IATA code : AGF
- Download approach charts


LFBA - Agen

CURRENT METAR :
  • 180730Z AUTO 22007KT 180V250 9999 OVC033 09/06 Q1023 NOSIG

EXPIRED METARs :
  • 180700Z AUTO 22008KT 190V250 9999 OVC032 09/06 Q1023 NOSIG
  • 180630Z AUTO 21008KT 180V240 9999 OVC032 09/06 Q1023 NOSIG
  • 180600Z AUTO 22007KT 200V260 9999 FEW022 OVC035 09/06 Q1023 NOSIG
  • 180530Z AUTO 23005KT 200V270 9999 SCT023 OVC034 09/06 Q1023 NOSIG
  • 180500Z AUTO 22006KT 190V250 9999 SCT038 OVC046 08/06 Q1023

TAF TAF LFBA
Valid from the 18 at 06:00 until the 18 at 15:00 UTC


180500Z 1806/1815 24010KT 9999 BKN040
TEMPO 1810/1815 BKN015
No reported NOTAMs for that airfield.
1 SIGMET reported for the Bordeaux FIR (LFBB) :
 
Severe turbulence
LFBB SIGMET 2 VALID 180600/180900 LFPW
LFBB BORDEAUX FIR/UIR SEV TURB FCST NE OF LINE N4345 E00245 - N4715 E00130 SFC/FL080 STNR NC=



MET'MAP, your aeronautical weather chart ! - Copyright ORBIFLY December 2007 - Disclaimer

ORBIFLY MET'MAP TEAM :

Programming & Development : Alexandra Zaïnal
Concept & Development : Baudouin d'Aumeries
Co-Development & Prog : Marc-Olivier Méhu
Technical & hardware support : Manuel Goepfert

Contact : metmap@orbifly.com




SOURCES & CREDITS :

   NOAA